createdAt,value
2018-09-17T00:00:25.117Z,12.73
2018-09-17T00:05:27.646Z,12.50
2018-09-17T00:10:30.209Z,11.73
2018-09-17T00:15:32.840Z,11.17
2018-09-17T00:20:35.406Z,13.27
2018-09-17T00:25:37.954Z,12.53
2018-09-17T00:30:40.514Z,10.77
2018-09-17T00:35:43.048Z,10.40
2018-09-17T00:40:45.630Z,10.10
2018-09-17T00:45:48.172Z,10.83
2018-09-17T00:50:50.780Z,11.27
2018-09-17T00:55:53.337Z,11.23
2018-09-17T01:00:55.911Z,12.47
2018-09-17T01:05:58.446Z,11.27
2018-09-17T01:11:00.995Z,12.47
2018-09-17T01:16:03.549Z,11.07
2018-09-17T01:21:06.156Z,13.53
2018-09-17T01:26:08.725Z,11.47
2018-09-17T01:31:11.263Z,9.57
2018-09-17T01:36:13.807Z,13.43
2018-09-17T01:41:17.015Z,9.73
2018-09-17T01:46:19.551Z,9.83
2018-09-17T01:51:22.058Z,9.83
2018-09-17T01:56:24.640Z,10.27
2018-09-17T02:01:27.170Z,11.60
2018-09-17T02:06:29.686Z,9.63
2018-09-17T02:11:32.337Z,10.27
2018-09-17T02:16:34.883Z,9.70
2018-09-17T02:21:37.509Z,10.73
2018-09-17T02:26:40.088Z,11.60
2018-09-17T02:31:42.667Z,11.50
2018-09-17T02:36:45.280Z,11.33
2018-09-17T02:41:47.920Z,10.90
2018-09-17T02:46:50.503Z,10.77
2018-09-17T02:51:53.083Z,11.90
2018-09-17T02:56:55.620Z,10.00
2018-09-17T03:01:58.227Z,17.30
2018-09-17T03:07:00.780Z,10.93
2018-09-17T03:12:03.304Z,13.53
2018-09-17T03:17:11.742Z,10.97
2018-09-17T03:22:14.949Z,11.73
2018-09-17T03:27:17.496Z,13.07
2018-09-17T03:32:20.080Z,15.07
2018-09-17T03:37:26.005Z,11.80
2018-09-17T03:42:29.135Z,13.77
2018-09-17T03:47:31.663Z,13.33
2018-09-17T03:52:34.178Z,13.30
2018-09-17T03:57:36.707Z,12.03
2018-09-17T04:02:39.228Z,12.13
2018-09-17T04:07:41.735Z,12.37
2018-09-17T04:12:44.304Z,10.60
2018-09-17T04:17:46.895Z,13.47
2018-09-17T04:22:49.494Z,11.67
2018-09-17T04:27:51.978Z,10.33
2018-09-17T04:32:54.643Z,10.03
2018-09-17T04:37:57.247Z,11.73
2018-09-17T04:43:00.600Z,10.47
2018-09-17T04:48:03.176Z,9.80
2018-09-17T04:53:05.706Z,13.17
2018-09-17T04:58:08.271Z,12.07
2018-09-17T05:03:10.859Z,14.07
2018-09-17T05:08:13.383Z,11.30
2018-09-17T05:13:15.996Z,9.17
2018-09-17T05:18:18.443Z,10.40
2018-09-17T05:23:20.984Z,11.23
2018-09-17T05:28:23.543Z,12.70
2018-09-17T05:33:26.098Z,11.00
2018-09-17T05:38:28.644Z,13.37
2018-09-17T05:43:31.168Z,10.53
2018-09-17T05:48:33.752Z,10.57
2018-09-17T05:53:36.295Z,11.87
2018-09-17T05:58:38.868Z,23.03
2018-09-17T06:03:41.440Z,34.50
2018-09-17T06:08:43.996Z,31.67
2018-09-17T06:13:46.591Z,27.00
2018-09-17T06:18:49.126Z,45.67
2018-09-17T06:23:52.338Z,22.43
2018-09-17T06:28:54.932Z,24.90
2018-09-17T06:33:57.422Z,29.70
2018-09-17T06:38:59.970Z,28.70
2018-09-17T06:44:02.704Z,20.53
2018-09-17T06:49:05.271Z,22.90
2018-09-17T06:54:07.811Z,27.50
2018-09-17T06:59:10.379Z,21.53
2018-09-17T07:04:12.943Z,23.13
2018-09-17T07:09:15.500Z,17.30
2018-09-17T07:14:18.044Z,17.00
2018-09-17T07:19:20.635Z,19.40
2018-09-17T07:24:23.150Z,22.90
2018-09-17T07:29:25.687Z,18.10
2018-09-17T07:34:28.204Z,20.63
2018-09-17T07:39:30.756Z,19.43
2018-09-17T07:44:33.300Z,20.57
2018-09-17T07:49:35.833Z,21.17
2018-09-17T07:54:38.362Z,20.07
2018-09-17T07:59:40.872Z,15.47
2018-09-17T08:04:43.459Z,14.93
2018-09-17T08:09:46.004Z,17.60
2018-09-17T08:14:48.577Z,14.47
2018-09-17T08:19:51.130Z,15.20
2018-09-17T08:24:53.639Z,19.87
2018-09-17T08:29:56.206Z,12.93
2018-09-17T08:34:58.994Z,11.23
2018-09-17T08:40:01.578Z,11.73
2018-09-17T08:45:04.557Z,9.10
2018-09-17T08:50:07.194Z,9.73
2018-09-17T08:55:10.731Z,9.23
2018-09-17T09:00:17.804Z,12.60
2018-09-17T09:05:26.012Z,8.97
2018-09-17T09:10:34.140Z,9.17
2018-09-17T09:15:39.284Z,8.80
2018-09-17T09:20:41.828Z,9.27
2018-09-17T09:25:44.401Z,8.27
2018-09-17T09:30:47.023Z,10.07
2018-09-17T09:35:49.514Z,7.70
2018-09-17T09:40:52.088Z,7.37
2018-09-17T09:45:54.703Z,7.47
2018-09-17T09:50:57.234Z,6.67
2018-09-17T09:55:59.782Z,5.60
2018-09-17T10:01:07.908Z,5.00
2018-09-17T10:06:11.471Z,4.85
2018-09-17T10:11:19.852Z,4.58
2018-09-17T10:16:22.460Z,4.90
2018-09-17T10:21:25.009Z,3.87
2018-09-17T10:26:27.553Z,6.60
2018-09-17T10:31:30.096Z,4.45
2018-09-17T10:36:32.657Z,6.33
2018-09-17T10:41:35.187Z,5.20
2018-09-17T10:46:37.807Z,6.45
2018-09-17T10:51:40.343Z,3.45
2018-09-17T10:56:42.996Z,5.05
2018-09-17T11:01:45.541Z,4.60
2018-09-17T11:06:48.081Z,2.45
2018-09-17T11:11:50.616Z,3.60
2018-09-17T11:16:53.184Z,2.02
2018-09-17T11:21:55.752Z,2.45
2018-09-17T11:26:58.286Z,2.50
2018-09-17T11:32:00.907Z,2.00
2018-09-17T11:37:03.473Z,1.90
2018-09-17T11:42:06.379Z,2.22
2018-09-17T11:47:09.242Z,1.62
2018-09-17T11:52:11.777Z,3.00
2018-09-17T11:57:14.337Z,1.72
2018-09-17T12:02:22.570Z,1.98
2018-09-17T12:07:30.799Z,1.75
2018-09-17T12:12:33.331Z,1.85
2018-09-17T12:17:37.830Z,1.90
2018-09-17T12:22:40.433Z,3.50
2018-09-17T12:27:43.006Z,1.95
2018-09-17T12:32:45.551Z,1.85
2018-09-17T12:37:48.073Z,2.10
2018-09-17T12:42:50.631Z,4.05
2018-09-17T12:47:53.752Z,1.95
2018-09-17T12:52:56.335Z,1.98
2018-09-17T12:57:58.979Z,1.80
2018-09-17T13:03:01.526Z,2.22
2018-09-17T13:08:04.136Z,2.47
2018-09-17T13:13:06.752Z,1.85
2018-09-17T13:18:09.267Z,2.20
2018-09-17T13:23:11.884Z,1.50
2018-09-17T13:28:14.778Z,1.80
2018-09-17T13:33:17.298Z,1.87
2018-09-17T13:38:19.843Z,1.90
2018-09-17T13:43:22.414Z,2.27
2018-09-17T13:48:24.920Z,1.50
2018-09-17T13:53:27.496Z,1.50
2018-09-17T13:58:30.479Z,2.50
2018-09-17T14:03:33.035Z,1.70
2018-09-17T14:08:35.633Z,3.10
2018-09-17T14:13:38.155Z,1.70
2018-09-17T14:18:40.740Z,3.00
2018-09-17T14:23:43.274Z,2.20
2018-09-17T14:28:45.870Z,2.62
2018-09-17T14:33:48.440Z,1.72
2018-09-17T14:38:51.064Z,1.75
2018-09-17T14:43:53.742Z,3.77
2018-09-17T14:48:56.341Z,2.77
2018-09-17T14:53:58.935Z,1.80
2018-09-17T14:59:01.452Z,1.70
2018-09-17T15:04:04.044Z,2.87
2018-09-17T15:09:07.683Z,1.72
2018-09-17T15:14:11.506Z,2.70
2018-09-17T15:19:14.034Z,1.80
2018-09-17T15:24:16.587Z,4.95
2018-09-17T15:29:19.133Z,1.80
2018-09-17T15:34:21.865Z,2.02
2018-09-17T15:39:24.381Z,1.80
2018-09-17T15:44:27.042Z,4.25
2018-09-17T15:49:29.533Z,3.33
2018-09-17T15:54:32.077Z,1.75
2018-09-17T15:59:34.624Z,2.77
2018-09-17T16:04:37.467Z,5.25
2018-09-17T16:09:40.019Z,2.35
2018-09-17T16:14:42.616Z,2.65
2018-09-17T16:19:45.131Z,5.08
2018-09-17T16:24:47.659Z,3.27
2018-09-17T16:29:50.267Z,2.05
2018-09-17T16:34:52.865Z,1.80
2018-09-17T16:39:55.460Z,3.33
2018-09-17T16:44:58.072Z,1.95
2018-09-17T16:50:00.587Z,2.02
2018-09-17T16:55:03.257Z,3.25
2018-09-17T17:00:05.955Z,5.13
2018-09-17T17:05:08.636Z,3.27
2018-09-17T17:10:11.445Z,4.10
2018-09-17T17:15:14.054Z,5.63
2018-09-17T17:20:16.645Z,11.87
2018-09-17T17:25:19.334Z,2.50
2018-09-17T17:30:22.107Z,5.73
2018-09-17T17:35:24.779Z,7.57
2018-09-17T17:40:27.446Z,4.40
2018-09-17T17:45:30.119Z,4.07
2018-09-17T17:50:32.849Z,8.93
2018-09-17T17:55:35.533Z,5.73
2018-09-17T18:00:38.426Z,2.77
2018-09-17T18:05:41.146Z,6.30
2018-09-17T18:10:43.891Z,3.53
2018-09-17T18:15:46.462Z,4.77
2018-09-17T18:20:49.690Z,3.60
2018-09-17T18:25:52.276Z,4.60
2018-09-17T18:30:54.832Z,3.47
2018-09-17T18:35:57.423Z,7.30
2018-09-17T18:41:00.003Z,4.50
2018-09-17T18:46:02.579Z,5.03
2018-09-17T18:51:05.519Z,3.00
2018-09-17T18:56:08.267Z,6.47
2018-09-17T19:01:10.934Z,4.50
2018-09-17T19:06:13.577Z,3.93
2018-09-17T19:11:16.177Z,5.43
2018-09-17T19:16:23.308Z,4.50
2018-09-17T19:21:31.725Z,3.33
2018-09-17T19:26:34.268Z,5.70
2018-09-17T19:31:36.927Z,3.43
2018-09-17T19:36:39.471Z,4.67
2018-09-17T19:41:42.908Z,5.03
2018-09-17T19:46:45.607Z,4.47
2018-09-17T19:52:24.553Z,4.17
2018-09-17T19:57:32.846Z,6.80
2018-09-17T20:02:35.537Z,3.70
2018-09-17T20:07:38.284Z,2.93
2018-09-17T20:12:40.839Z,3.03
2018-09-17T20:17:43.425Z,5.03
2018-09-17T20:22:46.071Z,2.63
2018-09-17T20:27:48.640Z,5.87
2018-09-17T20:32:51.723Z,6.63
2018-09-17T20:37:54.323Z,5.67
2018-09-17T20:42:56.915Z,3.60
2018-09-17T20:47:59.545Z,2.67
2018-09-17T20:53:02.543Z,3.87
2018-09-17T20:58:05.131Z,2.53
2018-09-17T21:03:07.803Z,5.93
2018-09-17T21:08:10.404Z,2.87
2018-09-17T21:13:13.030Z,3.07
2018-09-17T21:18:15.587Z,3.73
2018-09-17T21:23:18.165Z,2.23
2018-09-17T21:28:20.804Z,2.73
2018-09-17T21:33:23.345Z,2.40
2018-09-17T21:38:26.125Z,3.50
2018-09-17T21:43:28.663Z,4.73
2018-09-17T21:48:31.307Z,3.80
2018-09-17T21:53:34.139Z,3.77
2018-09-17T21:58:37.008Z,3.40
2018-09-17T22:03:39.651Z,2.97
2018-09-17T22:08:42.252Z,5.67
2018-09-17T22:13:44.901Z,3.33
2018-09-17T22:18:47.415Z,3.43
2018-09-17T22:23:50.061Z,5.73
2018-09-17T22:28:52.633Z,5.60
2018-09-17T22:33:55.179Z,3.93
2018-09-17T22:38:57.832Z,3.87
2018-09-17T22:44:00.427Z,4.80
2018-09-17T22:49:03.335Z,8.07
2018-09-17T22:54:05.883Z,7.50
2018-09-17T22:59:08.535Z,10.27
2018-09-17T23:04:12.004Z,5.73
2018-09-17T23:09:14.521Z,11.80
2018-09-17T23:14:17.096Z,9.20
2018-09-17T23:19:19.718Z,6.83
2018-09-17T23:24:22.259Z,9.47
2018-09-17T23:29:24.816Z,5.27
2018-09-17T23:34:27.467Z,4.90
2018-09-17T23:39:29.973Z,5.07
2018-09-17T23:44:32.519Z,4.50
2018-09-17T23:49:35.147Z,5.10
2018-09-17T23:54:37.714Z,5.70
2018-09-17T23:59:40.295Z,5.10
